createdAt,value
2022-10-17T00:00:40.445Z,85.21
2022-10-17T00:03:07.148Z,84.79
2022-10-17T00:05:34.146Z,85.57
2022-10-17T00:08:00.814Z,85.27
2022-10-17T00:10:27.566Z,85.68
2022-10-17T00:12:54.302Z,85.50
2022-10-17T00:15:21.635Z,85.18
2022-10-17T00:17:48.445Z,85.45
2022-10-17T00:20:16.139Z,84.87
2022-10-17T00:22:43.074Z,84.80
2022-10-17T00:25:10.478Z,85.25
2022-10-17T00:27:41.391Z,84.49
2022-10-17T00:30:12.317Z,84.42
2022-10-17T00:32:39.477Z,84.17
2022-10-17T00:35:06.888Z,84.86
2022-10-17T00:37:33.703Z,84.68
2022-10-17T00:40:00.959Z,84.73
2022-10-17T00:42:28.330Z,85.01
2022-10-17T00:45:14.206Z,84.78
2022-10-17T00:47:45.756Z,85.07
2022-10-17T00:50:13.100Z,85.60
2022-10-17T00:52:40.580Z,85.85
2022-10-17T00:55:25.615Z,85.71
2022-10-17T00:57:52.856Z,85.62
2022-10-17T01:00:19.953Z,84.87
2022-10-17T01:02:47.250Z,84.36
2022-10-17T01:05:15.618Z,84.63
2022-10-17T01:07:43.394Z,84.49
2022-10-17T01:10:10.815Z,84.42
2022-10-17T01:13:07.549Z,84.28
2022-10-17T01:15:40.441Z,85.43
2022-10-17T01:18:29.358Z,84.23
2022-10-17T01:21:17.780Z,83.80
2022-10-17T01:24:22.078Z,83.33
2022-10-17T01:27:18.223Z,83.35
2022-10-17T01:30:17.102Z,83.43
2022-10-17T01:33:11.668Z,83.68
2022-10-17T01:35:42.594Z,83.45
2022-10-17T01:38:13.039Z,83.52
2022-10-17T01:40:46.637Z,83.39
2022-10-17T01:43:21.422Z,83.68
2022-10-17T01:46:00.658Z,83.46
2022-10-17T01:48:33.003Z,84.17
2022-10-17T01:51:08.180Z,84.13
2022-10-17T01:53:39.269Z,84.74
2022-10-17T01:56:08.720Z,84.58
2022-10-17T01:58:42.258Z,84.95
2022-10-17T02:01:10.145Z,85.48
2022-10-17T02:03:37.475Z,85.15
2022-10-17T02:06:05.966Z,85.98
2022-10-17T02:08:43.460Z,85.63
2022-10-17T02:11:17.204Z,85.76
2022-10-17T02:13:46.424Z,85.71
2022-10-17T02:16:35.268Z,85.81
2022-10-17T02:19:23.713Z,87.12
2022-10-17T02:22:27.802Z,85.84
2022-10-17T02:25:02.353Z,86.47
2022-10-17T02:27:47.830Z,86.07
2022-10-17T02:30:23.247Z,85.33
2022-10-17T02:32:56.222Z,84.89
2022-10-17T02:35:22.804Z,85.31
2022-10-17T02:37:51.170Z,85.00
2022-10-17T02:40:18.947Z,84.63
2022-10-17T02:42:46.128Z,84.50
2022-10-17T02:45:13.831Z,84.26
2022-10-17T02:47:45.123Z,84.71
2022-10-17T02:50:12.183Z,84.83
2022-10-17T02:52:53.181Z,85.26
2022-10-17T02:55:25.006Z,84.92
2022-10-17T02:57:57.851Z,85.12
2022-10-17T03:00:25.119Z,85.63
2022-10-17T03:02:53.559Z,85.43
2022-10-17T03:05:26.081Z,85.22
2022-10-17T03:07:53.325Z,85.84
2022-10-17T03:10:20.394Z,85.60
2022-10-17T03:12:47.743Z,85.51
2022-10-17T03:15:15.008Z,85.11
2022-10-17T03:17:42.418Z,85.51
2022-10-17T03:20:10.357Z,85.26
2022-10-17T03:22:37.098Z,85.29
2022-10-17T03:25:05.521Z,84.82
2022-10-17T03:27:34.974Z,84.79
2022-10-17T03:30:01.700Z,84.82
2022-10-17T03:32:30.013Z,84.87
2022-10-17T03:34:56.857Z,85.06
2022-10-17T03:37:23.537Z,85.20
2022-10-17T03:39:50.495Z,84.89
2022-10-17T03:42:17.392Z,85.55
2022-10-17T03:44:44.065Z,85.61
2022-10-17T03:47:13.393Z,85.63
2022-10-17T03:49:41.087Z,85.67
2022-10-17T03:52:14.594Z,85.50
2022-10-17T03:54:41.553Z,85.84
2022-10-17T03:57:08.246Z,85.35
2022-10-17T03:59:35.737Z,84.77
2022-10-17T04:02:08.355Z,84.28
2022-10-17T04:04:35.700Z,84.24
2022-10-17T04:07:03.410Z,84.49
2022-10-17T04:09:30.373Z,84.37
2022-10-17T04:12:05.706Z,84.24
2022-10-17T04:14:33.398Z,84.33
2022-10-17T04:17:01.272Z,83.92
2022-10-17T04:19:28.978Z,84.44
2022-10-17T04:21:56.319Z,84.69
2022-10-17T04:24:23.171Z,84.59
2022-10-17T04:26:55.978Z,84.89
2022-10-17T04:29:25.859Z,84.60
2022-10-17T04:31:57.951Z,84.45
2022-10-17T04:34:33.934Z,84.27
2022-10-17T04:37:00.779Z,84.32
2022-10-17T04:39:27.896Z,85.33
2022-10-17T04:41:56.417Z,85.42
2022-10-17T04:44:23.913Z,86.01
2022-10-17T04:46:52.466Z,86.32
2022-10-17T04:49:19.846Z,86.40
2022-10-17T04:51:49.788Z,86.19
2022-10-17T04:54:26.702Z,86.52
2022-10-17T04:56:59.836Z,86.08
2022-10-17T04:59:26.701Z,85.94
2022-10-17T05:02:05.152Z,85.99
2022-10-17T05:04:33.630Z,85.76
2022-10-17T05:07:00.665Z,85.51
2022-10-17T05:09:45.219Z,85.58
2022-10-17T05:12:12.377Z,85.49
2022-10-17T05:14:42.760Z,85.87
2022-10-17T05:17:09.434Z,85.91
2022-10-17T05:19:37.038Z,86.00
2022-10-17T05:22:04.510Z,85.65
2022-10-17T05:24:31.234Z,85.93
2022-10-17T05:26:58.273Z,86.18
2022-10-17T05:29:25.175Z,86.01
2022-10-17T05:34:34.128Z,86.22
2022-10-17T05:37:01.018Z,86.00
2022-10-17T05:39:27.851Z,86.26
2022-10-17T05:41:56.009Z,86.43
2022-10-17T05:44:23.288Z,85.96
2022-10-17T05:46:54.541Z,86.61
2022-10-17T05:49:32.979Z,86.62
2022-10-17T05:52:07.446Z,86.47
2022-10-17T05:54:45.187Z,86.65
2022-10-17T05:57:12.244Z,86.68
2022-10-17T05:59:40.844Z,86.13
2022-10-17T06:02:12.926Z,86.13
2022-10-17T06:04:45.284Z,86.09
2022-10-17T06:07:13.285Z,86.24
2022-10-17T06:09:40.754Z,86.29
2022-10-17T06:12:08.362Z,86.32
2022-10-17T06:14:35.263Z,86.30
2022-10-17T06:17:04.098Z,86.16
2022-10-17T06:19:30.788Z,85.97
2022-10-17T06:21:57.546Z,85.66
2022-10-17T06:24:26.403Z,85.67
2022-10-17T06:26:53.715Z,86.01
2022-10-17T06:29:21.494Z,86.17
2022-10-17T06:31:51.170Z,86.05
2022-10-17T06:34:19.213Z,86.16
2022-10-17T06:36:46.994Z,85.81
2022-10-17T06:39:14.413Z,85.83
2022-10-17T06:42:04.056Z,85.72
2022-10-17T06:44:56.663Z,85.81
2022-10-17T06:47:45.017Z,85.18
2022-10-17T06:50:31.995Z,85.51
2022-10-17T06:53:18.973Z,85.68
2022-10-17T06:55:54.129Z,85.67
2022-10-17T06:58:40.177Z,85.56
2022-10-17T07:01:47.098Z,85.72
2022-10-17T07:04:15.118Z,86.21
2022-10-17T07:06:41.889Z,86.37
2022-10-17T07:09:15.238Z,86.50
2022-10-17T07:11:42.050Z,87.04
2022-10-17T07:14:08.742Z,86.76
2022-10-17T07:16:35.692Z,86.36
2022-10-17T07:19:22.626Z,86.41
2022-10-17T07:21:50.659Z,86.20
2022-10-17T07:24:17.393Z,86.37
2022-10-17T07:26:48.489Z,86.12
2022-10-17T07:29:15.702Z,86.36
2022-10-17T07:31:48.791Z,86.42
2022-10-17T07:34:15.604Z,86.50
2022-10-17T07:36:43.203Z,86.08
2022-10-17T07:39:11.513Z,85.58
2022-10-17T07:41:38.798Z,85.79
2022-10-17T07:44:06.307Z,85.54
2022-10-17T07:46:37.701Z,86.27
2022-10-17T07:49:05.490Z,86.37
2022-10-17T07:51:33.915Z,86.48
2022-10-17T07:54:00.575Z,86.02
2022-10-17T07:56:27.264Z,85.83
2022-10-17T07:58:54.034Z,85.49
2022-10-17T08:01:20.722Z,85.25
2022-10-17T08:03:48.755Z,85.06
2022-10-17T08:06:15.731Z,85.27
2022-10-17T08:08:42.565Z,85.91
2022-10-17T08:11:11.941Z,86.20
2022-10-17T08:13:40.133Z,85.74
2022-10-17T08:16:09.127Z,85.95
2022-10-17T08:18:36.522Z,86.01
2022-10-17T08:21:08.405Z,86.13
2022-10-17T08:23:36.238Z,86.29
2022-10-17T08:26:04.896Z,86.20
2022-10-17T08:28:31.585Z,86.25
2022-10-17T08:31:12.783Z,86.84
2022-10-17T08:33:39.813Z,86.02
2022-10-17T08:36:07.747Z,86.30
2022-10-17T08:38:36.806Z,85.96
2022-10-17T08:41:11.799Z,85.70
2022-10-17T08:44:05.763Z,85.68
2022-10-17T08:46:36.186Z,85.58
2022-10-17T08:49:06.572Z,85.53
2022-10-17T08:51:37.430Z,85.84
2022-10-17T08:54:16.988Z,85.89
2022-10-17T08:56:49.539Z,85.64
2022-10-17T08:59:30.246Z,86.40
2022-10-17T09:02:19.882Z,86.28
2022-10-17T09:05:07.580Z,85.98
2022-10-17T09:08:15.025Z,86.86
2022-10-17T09:10:47.491Z,86.35
2022-10-17T09:13:44.204Z,86.00
2022-10-17T09:16:24.440Z,85.80
2022-10-17T09:19:01.836Z,85.96
2022-10-17T09:21:48.667Z,86.99
2022-10-17T09:24:19.100Z,86.45
2022-10-17T09:26:46.783Z,86.22
2022-10-17T09:29:22.026Z,86.16
2022-10-17T09:32:00.042Z,85.78
2022-10-17T09:34:28.352Z,86.10
2022-10-17T09:36:55.294Z,86.34
2022-10-17T09:39:26.548Z,86.32
2022-10-17T09:41:55.428Z,86.51
2022-10-17T09:44:23.482Z,87.17
2022-10-17T09:47:02.021Z,86.97
2022-10-17T09:49:33.315Z,87.34
2022-10-17T09:52:05.107Z,87.46
2022-10-17T09:54:46.375Z,87.35
2022-10-17T09:57:14.439Z,86.97
2022-10-17T09:59:42.730Z,86.70
2022-10-17T10:02:12.320Z,86.91
2022-10-17T10:05:17.984Z,86.75
2022-10-17T10:08:03.488Z,86.13
2022-10-17T10:10:31.725Z,86.49
2022-10-17T10:13:20.426Z,86.38
2022-10-17T10:15:49.261Z,86.44
2022-10-17T10:18:24.857Z,86.16
2022-10-17T10:21:11.091Z,86.01
2022-10-17T10:23:40.521Z,85.98
2022-10-17T10:26:23.685Z,86.21
2022-10-17T10:29:23.374Z,86.04
2022-10-17T10:31:50.916Z,86.43
2022-10-17T10:34:24.603Z,86.18
2022-10-17T10:37:17.238Z,86.57
2022-10-17T10:39:54.532Z,85.85
2022-10-17T10:42:40.721Z,85.99
2022-10-17T10:45:35.936Z,85.44
2022-10-17T10:48:24.830Z,85.89
2022-10-17T10:51:08.693Z,85.62
2022-10-17T10:53:45.577Z,85.55
2022-10-17T10:56:28.744Z,86.19
2022-10-17T10:58:57.082Z,87.56
2022-10-17T11:01:41.885Z,86.52
2022-10-17T11:04:23.069Z,86.43
2022-10-17T11:06:52.974Z,86.26
2022-10-17T11:09:56.416Z,86.73
2022-10-17T11:12:45.893Z,86.91
2022-10-17T11:15:21.159Z,86.29
2022-10-17T11:17:58.221Z,86.55
2022-10-17T11:20:52.280Z,86.38
2022-10-17T11:23:47.302Z,86.47
2022-10-17T11:26:26.610Z,86.75
2022-10-17T11:28:58.262Z,86.39
2022-10-17T11:31:36.995Z,86.52
2022-10-17T11:34:05.490Z,86.92
2022-10-17T11:36:35.109Z,86.74
2022-10-17T11:39:05.407Z,86.43
2022-10-17T11:41:42.985Z,86.82
2022-10-17T11:44:25.574Z,86.58
2022-10-17T11:47:30.922Z,86.15
2022-10-17T11:53:00.360Z,85.86
2022-10-17T11:55:29.417Z,85.79
2022-10-17T11:58:25.262Z,85.67
2022-10-17T12:01:24.537Z,85.50
2022-10-17T12:04:24.468Z,86.01
2022-10-17T12:07:13.766Z,86.00
2022-10-17T12:09:49.290Z,86.67
2022-10-17T12:12:35.102Z,86.56
2022-10-17T12:15:25.185Z,86.17
2022-10-17T12:18:02.221Z,86.52
2022-10-17T12:20:36.510Z,86.35
2022-10-17T12:23:12.141Z,86.30
2022-10-17T12:25:55.037Z,86.45
2022-10-17T12:28:44.778Z,86.29
2022-10-17T12:31:17.395Z,86.68
2022-10-17T12:33:55.484Z,87.13
2022-10-17T12:36:22.073Z,86.43
2022-10-17T12:39:14.471Z,86.25
2022-10-17T12:41:41.262Z,86.12
2022-10-17T12:44:13.943Z,85.59
2022-10-17T12:46:59.398Z,85.48
2022-10-17T12:49:45.600Z,85.73
2022-10-17T12:52:18.166Z,86.26
2022-10-17T12:55:10.883Z,87.42
2022-10-17T12:57:39.225Z,86.17
2022-10-17T13:00:14.207Z,86.30
2022-10-17T13:02:40.983Z,85.72
2022-10-17T13:05:14.168Z,85.47
2022-10-17T13:07:43.048Z,85.55
2022-10-17T13:12:54.840Z,85.47
2022-10-17T13:15:21.921Z,84.91
2022-10-17T13:17:58.902Z,84.35
2022-10-17T13:20:30.607Z,84.42
2022-10-17T13:22:58.693Z,84.71
2022-10-17T13:25:27.173Z,84.35
2022-10-17T13:28:05.544Z,83.62
2022-10-17T13:30:35.260Z,83.79
2022-10-17T13:33:02.959Z,83.28
2022-10-17T13:38:28.403Z,82.31
2022-10-17T13:41:01.607Z,81.50
2022-10-17T13:43:38.684Z,81.70
2022-10-17T13:46:25.351Z,81.47
2022-10-17T13:48:53.244Z,81.71
2022-10-17T13:51:20.235Z,81.41
2022-10-17T13:53:46.876Z,81.38
2022-10-17T13:56:27.796Z,80.98
2022-10-17T13:58:57.522Z,80.85
2022-10-17T14:01:26.385Z,80.73
2022-10-17T14:04:07.125Z,81.64
2022-10-17T14:06:34.901Z,82.40
2022-10-17T14:09:05.680Z,83.29
2022-10-17T14:11:38.086Z,83.18
2022-10-17T14:14:06.876Z,84.38
2022-10-17T14:16:36.679Z,84.75
2022-10-17T14:19:04.651Z,85.62
2022-10-17T14:21:43.414Z,85.30
2022-10-17T14:24:23.339Z,85.20
2022-10-17T14:26:52.079Z,85.50
2022-10-17T14:29:28.065Z,85.91
2022-10-17T14:32:10.924Z,85.88
2022-10-17T14:34:40.448Z,85.95
2022-10-17T14:37:13.435Z,86.66
2022-10-17T14:39:40.180Z,86.24
2022-10-17T14:42:07.095Z,86.49
2022-10-17T14:44:35.557Z,86.54
2022-10-17T14:47:30.751Z,86.86
2022-10-17T14:50:06.080Z,87.34
2022-10-17T14:52:33.883Z,87.47
2022-10-17T14:55:17.422Z,88.09
2022-10-17T14:57:45.677Z,87.67
2022-10-17T15:00:16.770Z,87.60
2022-10-17T15:02:44.090Z,87.87
2022-10-17T15:05:13.262Z,87.60
2022-10-17T15:07:40.870Z,87.39
2022-10-17T15:10:20.969Z,87.65
2022-10-17T15:12:56.221Z,88.31
2022-10-17T15:15:28.557Z,88.46
2022-10-17T15:17:55.412Z,88.41
2022-10-17T15:20:26.132Z,88.46
2022-10-17T15:22:53.825Z,88.40
2022-10-17T15:25:20.889Z,88.51
2022-10-17T15:27:47.734Z,88.27
2022-10-17T15:30:27.082Z,88.98
2022-10-17T15:32:53.914Z,88.76
2022-10-17T15:35:21.237Z,89.10
2022-10-17T15:37:48.273Z,89.25
2022-10-17T15:40:22.385Z,89.47
2022-10-17T15:42:49.234Z,89.76
2022-10-17T15:45:17.740Z,90.06
2022-10-17T15:47:50.563Z,90.08
2022-10-17T15:50:17.420Z,90.95
2022-10-17T15:52:44.118Z,90.28
2022-10-17T15:55:16.313Z,90.39
2022-10-17T15:58:17.617Z,90.24
2022-10-17T16:00:45.206Z,90.49
2022-10-17T16:03:12.080Z,90.61
2022-10-17T16:05:38.744Z,90.57
2022-10-17T16:08:05.580Z,90.66
2022-10-17T16:10:32.716Z,90.50
2022-10-17T16:12:59.375Z,90.26
2022-10-17T16:15:27.955Z,90.44
2022-10-17T16:17:56.705Z,90.12
2022-10-17T16:20:24.631Z,90.48
2022-10-17T16:22:51.639Z,90.49
2022-10-17T16:25:24.333Z,90.49
2022-10-17T16:27:56.071Z,90.50
2022-10-17T16:30:24.656Z,90.30
2022-10-17T16:32:52.149Z,90.58
2022-10-17T16:35:33.220Z,90.62
2022-10-17T16:38:04.205Z,90.64
2022-10-17T16:40:30.913Z,90.77
2022-10-17T16:42:57.563Z,90.93
2022-10-17T16:45:24.173Z,90.78
2022-10-17T16:47:51.243Z,90.63
2022-10-17T16:50:18.469Z,90.78
2022-10-17T16:52:45.257Z,90.82
2022-10-17T16:55:11.980Z,90.80
2022-10-17T16:57:38.766Z,90.66
2022-10-17T17:00:07.010Z,90.48
2022-10-17T17:02:33.986Z,90.66
2022-10-17T17:05:00.901Z,90.68
2022-10-17T17:07:29.517Z,90.80
2022-10-17T17:09:56.649Z,90.67
2022-10-17T17:12:23.530Z,91.14
2022-10-17T17:14:50.236Z,91.18
2022-10-17T17:17:30.222Z,91.35
2022-10-17T17:20:04.224Z,91.59
2022-10-17T17:22:30.922Z,91.48
2022-10-17T17:24:57.774Z,91.73
2022-10-17T17:27:25.305Z,91.81
2022-10-17T17:29:52.094Z,92.33
2022-10-17T17:32:18.749Z,92.06
2022-10-17T17:34:45.578Z,92.10
2022-10-17T17:37:12.407Z,92.21
2022-10-17T17:39:39.166Z,92.50
2022-10-17T17:42:06.090Z,92.67
2022-10-17T17:44:32.964Z,92.64
2022-10-17T17:46:59.667Z,92.31
2022-10-17T17:49:26.402Z,92.26
2022-10-17T17:51:53.141Z,92.51
2022-10-17T17:54:19.867Z,92.65
2022-10-17T17:56:46.682Z,92.37
2022-10-17T17:59:13.772Z,92.52
2022-10-17T18:01:41.209Z,92.22
2022-10-17T18:04:09.078Z,92.28
2022-10-17T18:06:37.454Z,92.30
2022-10-17T18:09:05.269Z,92.43
2022-10-17T18:11:32.130Z,92.48
2022-10-17T18:14:01.619Z,92.65
2022-10-17T18:16:29.688Z,92.65
2022-10-17T18:18:56.926Z,92.87
2022-10-17T18:21:23.990Z,92.50
2022-10-17T18:23:51.708Z,92.60
2022-10-17T18:26:18.870Z,92.60
2022-10-17T18:28:45.546Z,92.60
2022-10-17T18:31:25.005Z,92.25
2022-10-17T18:33:52.836Z,92.18
2022-10-17T18:36:19.727Z,92.43
2022-10-17T18:38:46.388Z,92.90
2022-10-17T18:41:15.703Z,92.51
2022-10-17T18:43:44.625Z,92.53
2022-10-17T18:46:15.046Z,92.53
2022-10-17T18:48:44.493Z,92.57
2022-10-17T18:51:12.974Z,92.96
2022-10-17T18:53:44.676Z,92.87
2022-10-17T18:56:12.103Z,92.69
2022-10-17T18:58:39.542Z,92.64
2022-10-17T19:01:09.624Z,92.85
2022-10-17T19:03:36.704Z,92.79
2022-10-17T19:06:07.387Z,92.63
2022-10-17T19:08:37.918Z,92.64
2022-10-17T19:11:09.018Z,92.53
2022-10-17T19:13:36.435Z,92.62
2022-10-17T19:16:07.739Z,92.39
2022-10-17T19:18:35.246Z,92.77
2022-10-17T19:21:03.610Z,92.67
2022-10-17T19:23:30.657Z,92.43
2022-10-17T19:26:04.268Z,91.89
2022-10-17T19:28:31.522Z,92.16
2022-10-17T19:30:58.337Z,92.26
2022-10-17T19:33:25.297Z,92.28
2022-10-17T19:35:59.541Z,92.27
2022-10-17T19:38:26.593Z,92.40
2022-10-17T19:40:53.442Z,92.48
2022-10-17T19:43:20.365Z,92.62
2022-10-17T19:45:57.937Z,92.27
2022-10-17T19:48:25.275Z,92.53
2022-10-17T19:50:52.866Z,92.45
2022-10-17T19:53:21.909Z,92.29
2022-10-17T19:55:48.564Z,92.38
2022-10-17T19:58:15.269Z,92.13
2022-10-17T20:00:49.781Z,91.96
2022-10-17T20:03:17.196Z,92.00
2022-10-17T20:05:44.153Z,91.91
2022-10-17T20:08:11.038Z,91.88
2022-10-17T20:10:37.648Z,92.07
2022-10-17T20:13:04.290Z,92.23
2022-10-17T20:15:30.985Z,92.04
2022-10-17T20:17:57.788Z,92.22
2022-10-17T20:20:24.685Z,92.30
2022-10-17T20:22:51.389Z,91.82
2022-10-17T20:25:18.271Z,91.70
2022-10-17T20:27:45.007Z,91.80
2022-10-17T20:30:12.072Z,91.64
2022-10-17T20:32:39.997Z,91.74
2022-10-17T20:35:07.670Z,91.65
2022-10-17T20:37:39.893Z,91.75
2022-10-17T20:42:56.294Z,92.04
2022-10-17T20:45:37.381Z,91.63
2022-10-17T20:48:15.025Z,91.36
2022-10-17T20:50:43.283Z,91.19
2022-10-17T20:53:35.376Z,91.33
2022-10-17T20:56:06.290Z,91.20
2022-10-17T20:58:33.389Z,91.33
2022-10-17T21:01:10.768Z,90.65
2022-10-17T21:03:41.148Z,90.91
2022-10-17T21:06:11.119Z,91.12
2022-10-17T21:08:37.917Z,90.94
2022-10-17T21:11:30.944Z,90.55
2022-10-17T21:14:03.081Z,90.30
2022-10-17T21:16:31.388Z,90.55
2022-10-17T21:18:58.076Z,90.64
2022-10-17T21:21:30.263Z,89.82
2022-10-17T21:24:01.251Z,90.09
2022-10-17T21:26:28.700Z,89.88
2022-10-17T21:28:55.665Z,89.53
2022-10-17T21:31:24.886Z,89.68
2022-10-17T21:33:53.739Z,89.89
2022-10-17T21:36:20.911Z,90.03
2022-10-17T21:38:49.370Z,89.62
2022-10-17T21:41:19.497Z,89.61
2022-10-17T21:43:46.650Z,89.62
2022-10-17T21:46:18.165Z,89.09
2022-10-17T21:48:45.860Z,89.81
2022-10-17T21:51:15.046Z,89.32
2022-10-17T21:53:42.325Z,89.24
2022-10-17T21:56:14.163Z,88.68
2022-10-17T21:58:40.867Z,88.99
2022-10-17T22:01:12.746Z,88.61
2022-10-17T22:03:44.214Z,88.79
2022-10-17T22:06:45.215Z,88.64
2022-10-17T22:09:03.030Z,88.94
2022-10-17T22:11:31.647Z,88.91
2022-10-17T22:14:01.017Z,89.04
2022-10-17T22:16:28.108Z,88.96
2022-10-17T22:19:03.149Z,88.85
2022-10-17T22:21:33.338Z,88.89
2022-10-17T22:24:02.183Z,88.82
2022-10-17T22:26:29.969Z,88.38
2022-10-17T22:28:56.989Z,88.62
2022-10-17T22:31:23.953Z,88.10
2022-10-17T22:33:50.980Z,88.25
2022-10-17T22:36:17.651Z,88.06
2022-10-17T22:38:44.315Z,88.25
2022-10-17T22:41:11.097Z,88.48
2022-10-17T22:43:37.827Z,88.21
2022-10-17T22:46:06.507Z,88.38
2022-10-17T22:48:33.825Z,88.38
2022-10-17T22:51:01.329Z,88.55
2022-10-17T22:53:29.456Z,88.84
2022-10-17T22:56:05.133Z,88.64
2022-10-17T22:58:34.339Z,88.66
2022-10-17T23:01:01.404Z,88.79
2022-10-17T23:03:29.254Z,88.57
2022-10-17T23:05:56.646Z,88.61
2022-10-17T23:08:24.612Z,88.24
2022-10-17T23:10:51.542Z,88.40
2022-10-17T23:13:19.743Z,88.31
2022-10-17T23:15:46.610Z,88.27
2022-10-17T23:18:13.362Z,88.07
2022-10-17T23:20:40.071Z,88.10
2022-10-17T23:23:06.682Z,87.96
2022-10-17T23:25:34.433Z,87.91
2022-10-17T23:28:01.370Z,88.20
2022-10-17T23:30:28.201Z,88.21
2022-10-17T23:32:55.040Z,87.89
2022-10-17T23:35:21.771Z,87.81
2022-10-17T23:37:48.436Z,88.00
2022-10-17T23:40:15.301Z,88.21
2022-10-17T23:42:42.031Z,88.01
2022-10-17T23:45:09.187Z,88.21
2022-10-17T23:47:35.933Z,87.93
2022-10-17T23:50:02.816Z,87.51
2022-10-17T23:52:29.566Z,87.56
2022-10-17T23:54:56.233Z,87.28
2022-10-17T23:57:22.952Z,87.67
2022-10-17T23:59:49.591Z,87.93
